ラルナカ の空港の天気 - METARとTAF

ラルナカ国際空港 ( LCLK / LCA ) - キプロス ラルナカ
飛行場実況気象(Metar)
観測時間11/13 04:00 EET (11/13 02:00 UTC)
風向・風速北北西 4m/s
視程10km以上
天気現象
なし
気温19℃
湿度64%
気圧1014hPa
METARLCLK 130200Z 33007KT CAVOK 19/12 Q1014 NOSIG
過去の天気等 Google飛行場航空写真 Wunderground天気予報

過去48時間のMETAR

飛行場予報(TAF)
発表時間: 11/13 01:30 EET (11/12 23:30 UTC)
予報対象時間: 13日2時 EET ~ 14日2時 EET
風向・風速北北西 4m/s
視程10km以上
なし
13日7時 EET ~ 13日10時 EET に徐々に
風向・風速東北東 7m/s
13日18時 EET ~ 13日21時 EET に徐々に
風向・風速北 5m/s
TAF LCLK 122330Z 1300/1324 34008KT CAVOK
BECMG 1305/1308 06014KT
BECMG 1316/1319 36009I?I?